sensor_id;sensor_type;location;lat;lon;timestamp;P1;durP1;ratioP1;P2;durP2;ratioP2
34359;SDS011;20624;55.870;26.506;2024-03-02T00:00:42;4.25;;;2.13;;
34359;SDS011;20624;55.870;26.506;2024-03-02T00:03:11;4.32;;;2.28;;
34359;SDS011;20624;55.870;26.506;2024-03-02T00:05:40;4.20;;;2.10;;
34359;SDS011;20624;55.870;26.506;2024-03-02T00:08:08;3.47;;;1.65;;
34359;SDS011;20624;55.870;26.506;2024-03-02T00:10:39;3.47;;;1.85;;
34359;SDS011;20624;55.870;26.506;2024-03-02T00:13:10;3.92;;;1.75;;
34359;SDS011;20624;55.870;26.506;2024-03-02T00:15:46;2.17;;;1.42;;
34359;SDS011;20624;55.870;26.506;2024-03-02T00:18:17;5.65;;;1.95;;
34359;SDS011;20624;55.870;26.506;2024-03-02T00:20:46;4.38;;;2.08;;
34359;SDS011;20624;55.870;26.506;2024-03-02T00:23:14;13.43;;;3.47;;
34359;SDS011;20624;55.870;26.506;2024-03-02T00:25:44;3.90;;;2.22;;
34359;SDS011;20624;55.870;26.506;2024-03-02T00:28:24;3.17;;;2.03;;
34359;SDS011;20624;55.870;26.506;2024-03-02T00:31:04;4.38;;;2.30;;
34359;SDS011;20624;55.870;26.506;2024-03-02T00:33:33;4.85;;;2.35;;
34359;SDS011;20624;55.870;26.506;2024-03-02T00:36:04;3.05;;;1.45;;
34359;SDS011;20624;55.870;26.506;2024-03-02T00:38:33;4.90;;;2.00;;
34359;SDS011;20624;55.870;26.506;2024-03-02T00:41:05;3.80;;;1.70;;
34359;SDS011;20624;55.870;26.506;2024-03-02T00:46:04;3.88;;;2.08;;
34359;SDS011;20624;55.870;26.506;2024-03-02T00:48:31;5.70;;;2.25;;
34359;SDS011;20624;55.870;26.506;2024-03-02T00:51:02;3.25;;;2.10;;
34359;SDS011;20624;55.870;26.506;2024-03-02T00:53:34;4.82;;;1.80;;
34359;SDS011;20624;55.870;26.506;2024-03-02T00:56:02;3.97;;;2.10;;
34359;SDS011;20624;55.870;26.506;2024-03-02T00:58:30;5.18;;;2.30;;
34359;SDS011;20624;55.870;26.506;2024-03-02T01:00:58;3.63;;;1.77;;
34359;SDS011;20624;55.870;26.506;2024-03-02T01:03:26;4.38;;;1.63;;
34359;SDS011;20624;55.870;26.506;2024-03-02T01:05:54;3.40;;;1.80;;
34359;SDS011;20624;55.870;26.506;2024-03-02T01:08:21;3.92;;;1.75;;
34359;SDS011;20624;55.870;26.506;2024-03-02T01:10:50;3.28;;;1.80;;
34359;SDS011;20624;55.870;26.506;2024-03-02T01:13:18;4.32;;;2.15;;
34359;SDS011;20624;55.870;26.506;2024-03-02T01:15:45;5.03;;;2.10;;
34359;SDS011;20624;55.870;26.506;2024-03-02T01:18:13;6.20;;;2.28;;
34359;SDS011;20624;55.870;26.506;2024-03-02T01:20:41;5.97;;;2.20;;
34359;SDS011;20624;55.870;26.506;2024-03-02T01:23:09;4.80;;;2.00;;
34359;SDS011;20624;55.870;26.506;2024-03-02T01:25:37;3.00;;;1.98;;
34359;SDS011;20624;55.870;26.506;2024-03-02T01:28:04;4.00;;;2.10;;
34359;SDS011;20624;55.870;26.506;2024-03-02T01:30:32;6.10;;;2.38;;
34359;SDS011;20624;55.870;26.506;2024-03-02T01:33:01;3.08;;;1.73;;
34359;SDS011;20624;55.870;26.506;2024-03-02T01:35:33;4.28;;;2.17;;
34359;SDS011;20624;55.870;26.506;2024-03-02T01:38:02;8.32;;;2.85;;
34359;SDS011;20624;55.870;26.506;2024-03-02T01:40:30;7.68;;;2.40;;
34359;SDS011;20624;55.870;26.506;2024-03-02T01:42:57;4.53;;;2.60;;
34359;SDS011;20624;55.870;26.506;2024-03-02T01:45:25;3.22;;;1.70;;
34359;SDS011;20624;55.870;26.506;2024-03-02T01:47:53;4.38;;;2.30;;
34359;SDS011;20624;55.870;26.506;2024-03-02T01:50:33;7.05;;;2.58;;
34359;SDS011;20624;55.870;26.506;2024-03-02T01:53:01;5.20;;;2.40;;
34359;SDS011;20624;55.870;26.506;2024-03-02T01:55:30;2.58;;;1.50;;
34359;SDS011;20624;55.870;26.506;2024-03-02T01:57:57;3.10;;;1.80;;
34359;SDS011;20624;55.870;26.506;2024-03-02T02:00:26;6.47;;;2.25;;
34359;SDS011;20624;55.870;26.506;2024-03-02T02:02:54;3.90;;;1.90;;
34359;SDS011;20624;55.870;26.506;2024-03-02T02:05:21;2.63;;;1.85;;
34359;SDS011;20624;55.870;26.506;2024-03-02T02:07:49;5.85;;;2.58;;
34359;SDS011;20624;55.870;26.506;2024-03-02T02:10:17;7.75;;;2.20;;
34359;SDS011;20624;55.870;26.506;2024-03-02T02:12:45;6.05;;;1.80;;
34359;SDS011;20624;55.870;26.506;2024-03-02T02:15:25;9.05;;;2.50;;
34359;SDS011;20624;55.870;26.506;2024-03-02T02:17:54;4.80;;;2.20;;
34359;SDS011;20624;55.870;26.506;2024-03-02T02:20:22;8.23;;;2.53;;
34359;SDS011;20624;55.870;26.506;2024-03-02T02:25:23;2.67;;;2.00;;
34359;SDS011;20624;55.870;26.506;2024-03-02T02:27:52;5.90;;;2.67;;
34359;SDS011;20624;55.870;26.506;2024-03-02T02:30:20;8.20;;;2.85;;
34359;SDS011;20624;55.870;26.506;2024-03-02T02:32:48;4.25;;;1.42;;
34359;SDS011;20624;55.870;26.506;2024-03-02T02:35:16;5.88;;;2.45;;
34359;SDS011;20624;55.870;26.506;2024-03-02T02:37:45;4.53;;;2.33;;
34359;SDS011;20624;55.870;26.506;2024-03-02T02:40:13;7.82;;;2.58;;
34359;SDS011;20624;55.870;26.506;2024-03-02T02:42:40;9.73;;;3.45;;
34359;SDS011;20624;55.870;26.506;2024-03-02T02:45:08;4.32;;;2.00;;
34359;SDS011;20624;55.870;26.506;2024-03-02T02:47:37;7.22;;;2.35;;
34359;SDS011;20624;55.870;26.506;2024-03-02T02:50:08;7.15;;;2.42;;
34359;SDS011;20624;55.870;26.506;2024-03-02T02:52:37;6.65;;;2.58;;
34359;SDS011;20624;55.870;26.506;2024-03-02T02:55:07;3.95;;;2.25;;
34359;SDS011;20624;55.870;26.506;2024-03-02T02:57:35;5.15;;;2.15;;
34359;SDS011;20624;55.870;26.506;2024-03-02T03:00:06;5.07;;;2.25;;
34359;SDS011;20624;55.870;26.506;2024-03-02T03:02:43;5.15;;;2.35;;
34359;SDS011;20624;55.870;26.506;2024-03-02T03:05:12;7.43;;;2.60;;
34359;SDS011;20624;55.870;26.506;2024-03-02T03:07:41;4.20;;;2.05;;
34359;SDS011;20624;55.870;26.506;2024-03-02T03:10:08;5.63;;;2.33;;
34359;SDS011;20624;55.870;26.506;2024-03-02T03:12:36;4.78;;;2.42;;
34359;SDS011;20624;55.870;26.506;2024-03-02T03:15:04;4.53;;;2.00;;
34359;SDS011;20624;55.870;26.506;2024-03-02T03:17:33;4.45;;;2.03;;
34359;SDS011;20624;55.870;26.506;2024-03-02T03:20:01;4.53;;;2.00;;
34359;SDS011;20624;55.870;26.506;2024-03-02T03:22:30;3.90;;;2.35;;
34359;SDS011;20624;55.870;26.506;2024-03-02T03:24:58;3.20;;;1.90;;
34359;SDS011;20624;55.870;26.506;2024-03-02T03:27:26;3.30;;;2.13;;
34359;SDS011;20624;55.870;26.506;2024-03-02T03:29:54;4.25;;;1.95;;
34359;SDS011;20624;55.870;26.506;2024-03-02T03:32:22;6.10;;;2.65;;
34359;SDS011;20624;55.870;26.506;2024-03-02T03:34:50;7.07;;;2.80;;
34359;SDS011;20624;55.870;26.506;2024-03-02T03:37:17;4.25;;;2.58;;
34359;SDS011;20624;55.870;26.506;2024-03-02T03:39:45;4.38;;;2.45;;
34359;SDS011;20624;55.870;26.506;2024-03-02T03:42:13;6.90;;;2.75;;
34359;SDS011;20624;55.870;26.506;2024-03-02T03:44:41;5.47;;;2.10;;
34359;SDS011;20624;55.870;26.506;2024-03-02T03:47:09;5.28;;;2.53;;
34359;SDS011;20624;55.870;26.506;2024-03-02T03:49:37;6.80;;;2.92;;
34359;SDS011;20624;55.870;26.506;2024-03-02T03:52:05;5.50;;;2.20;;
34359;SDS011;20624;55.870;26.506;2024-03-02T03:54:33;4.82;;;2.70;;
34359;SDS011;20624;55.870;26.506;2024-03-02T03:57:01;4.28;;;2.75;;
34359;SDS011;20624;55.870;26.506;2024-03-02T03:59:28;5.72;;;2.67;;
34359;SDS011;20624;55.870;26.506;2024-03-02T04:01:56;6.57;;;2.60;;
34359;SDS011;20624;55.870;26.506;2024-03-02T04:04:24;5.90;;;3.00;;
34359;SDS011;20624;55.870;26.506;2024-03-02T04:06:52;5.38;;;3.03;;
34359;SDS011;20624;55.870;26.506;2024-03-02T04:09:19;5.55;;;2.88;;
34359;SDS011;20624;55.870;26.506;2024-03-02T04:11:47;8.02;;;3.63;;
34359;SDS011;20624;55.870;26.506;2024-03-02T04:14:15;6.13;;;3.30;;
34359;SDS011;20624;55.870;26.506;2024-03-02T04:16:43;7.00;;;3.33;;
34359;SDS011;20624;55.870;26.506;2024-03-02T04:19:10;4.78;;;2.85;;
34359;SDS011;20624;55.870;26.506;2024-03-02T04:21:38;6.20;;;3.67;;
34359;SDS011;20624;55.870;26.506;2024-03-02T04:24:06;7.05;;;3.83;;
34359;SDS011;20624;55.870;26.506;2024-03-02T04:26:34;6.93;;;3.30;;
34359;SDS011;20624;55.870;26.506;2024-03-02T04:29:02;7.97;;;3.65;;
34359;SDS011;20624;55.870;26.506;2024-03-02T04:31:30;7.95;;;3.80;;
34359;SDS011;20624;55.870;26.506;2024-03-02T04:34:01;7.97;;;3.25;;
34359;SDS011;20624;55.870;26.506;2024-03-02T04:36:28;4.50;;;2.70;;
34359;SDS011;20624;55.870;26.506;2024-03-02T04:38:56;11.23;;;3.22;;
34359;SDS011;20624;55.870;26.506;2024-03-02T04:41:24;6.45;;;3.90;;
34359;SDS011;20624;55.870;26.506;2024-03-02T04:43:52;6.90;;;3.25;;
34359;SDS011;20624;55.870;26.506;2024-03-02T04:46:19;7.22;;;3.22;;
34359;SDS011;20624;55.870;26.506;2024-03-02T04:48:47;9.82;;;4.30;;
34359;SDS011;20624;55.870;26.506;2024-03-02T04:51:21;8.00;;;4.18;;
34359;SDS011;20624;55.870;26.506;2024-03-02T04:53:50;8.65;;;3.95;;
34359;SDS011;20624;55.870;26.506;2024-03-02T04:56:17;10.73;;;3.65;;
34359;SDS011;20624;55.870;26.506;2024-03-02T04:58:57;8.63;;;4.57;;
34359;SDS011;20624;55.870;26.506;2024-03-02T05:01:26;9.63;;;3.83;;
34359;SDS011;20624;55.870;26.506;2024-03-02T05:03:53;8.23;;;4.65;;
34359;SDS011;20624;55.870;26.506;2024-03-02T05:06:21;10.20;;;5.20;;
34359;SDS011;20624;55.870;26.506;2024-03-02T05:08:50;8.63;;;5.10;;
34359;SDS011;20624;55.870;26.506;2024-03-02T05:11:17;14.75;;;5.65;;
34359;SDS011;20624;55.870;26.506;2024-03-02T05:14:03;9.05;;;4.70;;
34359;SDS011;20624;55.870;26.506;2024-03-02T05:16:34;11.48;;;5.85;;
34359;SDS011;20624;55.870;26.506;2024-03-02T05:19:03;10.02;;;5.05;;
34359;SDS011;20624;55.870;26.506;2024-03-02T05:21:33;10.15;;;5.10;;
34359;SDS011;20624;55.870;26.506;2024-03-02T05:24:02;10.93;;;5.47;;
34359;SDS011;20624;55.870;26.506;2024-03-02T05:26:30;9.00;;;5.20;;
34359;SDS011;20624;55.870;26.506;2024-03-02T05:28:57;8.68;;;5.00;;
34359;SDS011;20624;55.870;26.506;2024-03-02T05:31:25;10.10;;;5.47;;
34359;SDS011;20624;55.870;26.506;2024-03-02T05:33:53;11.13;;;5.70;;
34359;SDS011;20624;55.870;26.506;2024-03-02T05:36:23;10.40;;;5.75;;
34359;SDS011;20624;55.870;26.506;2024-03-02T05:38:51;13.23;;;5.80;;
34359;SDS011;20624;55.870;26.506;2024-03-02T05:41:19;9.85;;;5.50;;
34359;SDS011;20624;55.870;26.506;2024-03-02T05:43:47;10.32;;;6.75;;
34359;SDS011;20624;55.870;26.506;2024-03-02T05:46:14;10.80;;;6.22;;
34359;SDS011;20624;55.870;26.506;2024-03-02T05:48:42;9.27;;;6.32;;
34359;SDS011;20624;55.870;26.506;2024-03-02T05:51:10;12.70;;;5.55;;
34359;SDS011;20624;55.870;26.506;2024-03-02T05:53:39;11.20;;;4.43;;
34359;SDS011;20624;55.870;26.506;2024-03-02T05:58:35;10.60;;;5.70;;
34359;SDS011;20624;55.870;26.506;2024-03-02T06:01:22;11.50;;;4.97;;
34359;SDS011;20624;55.870;26.506;2024-03-02T06:03:55;13.05;;;4.65;;
34359;SDS011;20624;55.870;26.506;2024-03-02T06:06:23;11.52;;;5.22;;
34359;SDS011;20624;55.870;26.506;2024-03-02T06:08:51;11.82;;;5.28;;
34359;SDS011;20624;55.870;26.506;2024-03-02T06:11:19;12.65;;;5.82;;
34359;SDS011;20624;55.870;26.506;2024-03-02T06:13:46;10.40;;;6.20;;
34359;SDS011;20624;55.870;26.506;2024-03-02T06:16:14;12.02;;;6.15;;
34359;SDS011;20624;55.870;26.506;2024-03-02T06:18:42;11.18;;;5.63;;
34359;SDS011;20624;55.870;26.506;2024-03-02T06:21:09;12.68;;;5.10;;
34359;SDS011;20624;55.870;26.506;2024-03-02T06:23:37;11.82;;;5.00;;
34359;SDS011;20624;55.870;26.506;2024-03-02T06:26:05;10.73;;;5.50;;
34359;SDS011;20624;55.870;26.506;2024-03-02T06:28:33;9.68;;;5.95;;
34359;SDS011;20624;55.870;26.506;2024-03-02T06:31:01;10.35;;;5.32;;
34359;SDS011;20624;55.870;26.506;2024-03-02T06:33:30;10.20;;;5.25;;
34359;SDS011;20624;55.870;26.506;2024-03-02T06:35:58;10.80;;;5.70;;
34359;SDS011;20624;55.870;26.506;2024-03-02T06:38:26;10.00;;;5.57;;
34359;SDS011;20624;55.870;26.506;2024-03-02T06:40:53;12.40;;;4.78;;
34359;SDS011;20624;55.870;26.506;2024-03-02T06:43:24;8.13;;;4.45;;
34359;SDS011;20624;55.870;26.506;2024-03-02T06:45:52;9.77;;;4.85;;
34359;SDS011;20624;55.870;26.506;2024-03-02T06:48:20;11.48;;;5.70;;
34359;SDS011;20624;55.870;26.506;2024-03-02T06:50:48;9.57;;;6.55;;
34359;SDS011;20624;55.870;26.506;2024-03-02T06:53:16;10.73;;;5.50;;
34359;SDS011;20624;55.870;26.506;2024-03-02T06:55:46;11.02;;;6.03;;
34359;SDS011;20624;55.870;26.506;2024-03-02T06:58:13;7.13;;;4.47;;
34359;SDS011;20624;55.870;26.506;2024-03-02T07:00:42;12.60;;;5.47;;
34359;SDS011;20624;55.870;26.506;2024-03-02T07:03:10;9.45;;;5.40;;
34359;SDS011;20624;55.870;26.506;2024-03-02T07:05:39;9.82;;;6.72;;
34359;SDS011;20624;55.870;26.506;2024-03-02T07:08:06;10.13;;;5.28;;
34359;SDS011;20624;55.870;26.506;2024-03-02T07:10:34;10.45;;;5.45;;
34359;SDS011;20624;55.870;26.506;2024-03-02T07:13:02;10.52;;;5.47;;
34359;SDS011;20624;55.870;26.506;2024-03-02T07:15:30;9.30;;;6.03;;
34359;SDS011;20624;55.870;26.506;2024-03-02T07:18:18;8.93;;;5.03;;
34359;SDS011;20624;55.870;26.506;2024-03-02T07:20:46;13.13;;;6.18;;
34359;SDS011;20624;55.870;26.506;2024-03-02T07:23:16;11.48;;;7.00;;
34359;SDS011;20624;55.870;26.506;2024-03-02T07:25:44;11.38;;;7.07;;
34359;SDS011;20624;55.870;26.506;2024-03-02T07:28:14;12.07;;;5.93;;
34359;SDS011;20624;55.870;26.506;2024-03-02T07:30:45;12.77;;;6.63;;
34359;SDS011;20624;55.870;26.506;2024-03-02T07:33:13;13.07;;;5.93;;
34359;SDS011;20624;55.870;26.506;2024-03-02T07:35:43;12.05;;;6.13;;
34359;SDS011;20624;55.870;26.506;2024-03-02T07:38:10;13.55;;;6.47;;
34359;SDS011;20624;55.870;26.506;2024-03-02T07:40:38;12.98;;;7.88;;
34359;SDS011;20624;55.870;26.506;2024-03-02T07:43:06;13.63;;;6.50;;
34359;SDS011;20624;55.870;26.506;2024-03-02T07:45:35;14.48;;;7.03;;
34359;SDS011;20624;55.870;26.506;2024-03-02T07:48:03;11.90;;;6.93;;
34359;SDS011;20624;55.870;26.506;2024-03-02T07:50:32;14.10;;;7.15;;
34359;SDS011;20624;55.870;26.506;2024-03-02T07:53:01;14.65;;;7.15;;
34359;SDS011;20624;55.870;26.506;2024-03-02T07:55:29;10.68;;;6.43;;
34359;SDS011;20624;55.870;26.506;2024-03-02T07:57:57;11.75;;;5.72;;
34359;SDS011;20624;55.870;26.506;2024-03-02T08:00:24;17.60;;;6.40;;
34359;SDS011;20624;55.870;26.506;2024-03-02T08:02:54;16.17;;;7.20;;
34359;SDS011;20624;55.870;26.506;2024-03-02T08:05:22;12.57;;;7.72;;
34359;SDS011;20624;55.870;26.506;2024-03-02T08:07:50;14.70;;;5.95;;
34359;SDS011;20624;55.870;26.506;2024-03-02T08:10:21;11.80;;;7.15;;
34359;SDS011;20624;55.870;26.506;2024-03-02T08:12:48;13.38;;;6.43;;
34359;SDS011;20624;55.870;26.506;2024-03-02T08:15:16;14.93;;;7.38;;
34359;SDS011;20624;55.870;26.506;2024-03-02T08:17:44;8.60;;;5.60;;
34359;SDS011;20624;55.870;26.506;2024-03-02T08:20:15;8.50;;;4.53;;
34359;SDS011;20624;55.870;26.506;2024-03-02T08:22:43;13.23;;;6.68;;
34359;SDS011;20624;55.870;26.506;2024-03-02T08:25:10;15.50;;;7.20;;
34359;SDS011;20624;55.870;26.506;2024-03-02T08:27:39;12.77;;;6.95;;
34359;SDS011;20624;55.870;26.506;2024-03-02T08:30:07;13.60;;;6.45;;
34359;SDS011;20624;55.870;26.506;2024-03-02T08:32:37;12.25;;;5.82;;
34359;SDS011;20624;55.870;26.506;2024-03-02T08:35:05;11.32;;;5.32;;
34359;SDS011;20624;55.870;26.506;2024-03-02T08:37:33;11.45;;;6.20;;
34359;SDS011;20624;55.870;26.506;2024-03-02T08:40:01;12.88;;;6.10;;
34359;SDS011;20624;55.870;26.506;2024-03-02T08:42:30;10.38;;;5.38;;
34359;SDS011;20624;55.870;26.506;2024-03-02T08:44:58;11.75;;;5.90;;
34359;SDS011;20624;55.870;26.506;2024-03-02T08:47:27;15.25;;;5.45;;
34359;SDS011;20624;55.870;26.506;2024-03-02T08:49:55;12.48;;;5.88;;
34359;SDS011;20624;55.870;26.506;2024-03-02T08:52:26;11.13;;;4.20;;
34359;SDS011;20624;55.870;26.506;2024-03-02T08:54:54;10.88;;;5.25;;
34359;SDS011;20624;55.870;26.506;2024-03-02T08:57:22;13.18;;;5.95;;
34359;SDS011;20624;55.870;26.506;2024-03-02T08:59:49;12.90;;;5.47;;
34359;SDS011;20624;55.870;26.506;2024-03-02T09:02:18;17.00;;;5.90;;
34359;SDS011;20624;55.870;26.506;2024-03-02T09:04:46;11.70;;;4.85;;
34359;SDS011;20624;55.870;26.506;2024-03-02T09:07:13;8.23;;;3.55;;
34359;SDS011;20624;55.870;26.506;2024-03-02T09:09:41;12.05;;;4.88;;
34359;SDS011;20624;55.870;26.506;2024-03-02T09:12:09;14.80;;;5.45;;
34359;SDS011;20624;55.870;26.506;2024-03-02T09:14:37;13.00;;;4.65;;
34359;SDS011;20624;55.870;26.506;2024-03-02T09:17:05;10.95;;;3.97;;
34359;SDS011;20624;55.870;26.506;2024-03-02T09:19:33;9.10;;;4.35;;
34359;SDS011;20624;55.870;26.506;2024-03-02T09:22:00;14.35;;;4.57;;
34359;SDS011;20624;55.870;26.506;2024-03-02T09:24:29;8.45;;;2.97;;
34359;SDS011;20624;55.870;26.506;2024-03-02T09:26:57;5.95;;;3.20;;
34359;SDS011;20624;55.870;26.506;2024-03-02T09:29:25;9.38;;;3.95;;
34359;SDS011;20624;55.870;26.506;2024-03-02T09:31:53;10.52;;;3.20;;
34359;SDS011;20624;55.870;26.506;2024-03-02T09:34:20;14.82;;;4.88;;
34359;SDS011;20624;55.870;26.506;2024-03-02T09:36:51;9.20;;;4.20;;
34359;SDS011;20624;55.870;26.506;2024-03-02T09:39:19;7.72;;;3.90;;
34359;SDS011;20624;55.870;26.506;2024-03-02T09:41:47;12.65;;;4.13;;
34359;SDS011;20624;55.870;26.506;2024-03-02T09:44:16;17.75;;;5.22;;
34359;SDS011;20624;55.870;26.506;2024-03-02T09:46:44;11.30;;;5.60;;
34359;SDS011;20624;55.870;26.506;2024-03-02T09:49:16;10.73;;;4.80;;
34359;SDS011;20624;55.870;26.506;2024-03-02T09:51:46;15.07;;;5.75;;
34359;SDS011;20624;55.870;26.506;2024-03-02T09:54:18;13.18;;;4.82;;
34359;SDS011;20624;55.870;26.506;2024-03-02T09:56:49;11.70;;;4.97;;
34359;SDS011;20624;55.870;26.506;2024-03-02T09:59:17;7.38;;;4.50;;
34359;SDS011;20624;55.870;26.506;2024-03-02T10:04:28;8.50;;;4.13;;
34359;SDS011;20624;55.870;26.506;2024-03-02T10:07:17;9.60;;;4.88;;
34359;SDS011;20624;55.870;26.506;2024-03-02T10:09:48;10.00;;;5.13;;
34359;SDS011;20624;55.870;26.506;2024-03-02T10:12:16;12.40;;;5.00;;
34359;SDS011;20624;55.870;26.506;2024-03-02T10:14:45;9.57;;;4.80;;
34359;SDS011;20624;55.870;26.506;2024-03-02T10:17:16;11.25;;;5.22;;
34359;SDS011;20624;55.870;26.506;2024-03-02T10:19:44;10.73;;;5.25;;
34359;SDS011;20624;55.870;26.506;2024-03-02T10:22:12;10.88;;;5.88;;
34359;SDS011;20624;55.870;26.506;2024-03-02T10:24:41;9.40;;;4.75;;
34359;SDS011;20624;55.870;26.506;2024-03-02T10:27:18;12.52;;;4.80;;
34359;SDS011;20624;55.870;26.506;2024-03-02T10:29:53;7.32;;;4.40;;
34359;SDS011;20624;55.870;26.506;2024-03-02T10:32:22;8.82;;;4.13;;
34359;SDS011;20624;55.870;26.506;2024-03-02T10:34:49;10.02;;;4.68;;
34359;SDS011;20624;55.870;26.506;2024-03-02T10:37:17;11.82;;;5.65;;
34359;SDS011;20624;55.870;26.506;2024-03-02T10:39:45;10.40;;;6.53;;
34359;SDS011;20624;55.870;26.506;2024-03-02T10:42:14;14.70;;;7.55;;
34359;SDS011;20624;55.870;26.506;2024-03-02T10:44:42;14.50;;;6.50;;
34359;SDS011;20624;55.870;26.506;2024-03-02T10:47:10;12.20;;;6.80;;
34359;SDS011;20624;55.870;26.506;2024-03-02T10:49:41;12.73;;;5.45;;
34359;SDS011;20624;55.870;26.506;2024-03-02T10:52:11;12.20;;;6.93;;
34359;SDS011;20624;55.870;26.506;2024-03-02T10:54:39;14.13;;;5.70;;
34359;SDS011;20624;55.870;26.506;2024-03-02T10:57:07;8.80;;;5.55;;
34359;SDS011;20624;55.870;26.506;2024-03-02T10:59:37;9.65;;;6.60;;
34359;SDS011;20624;55.870;26.506;2024-03-02T11:02:21;10.18;;;5.28;;
34359;SDS011;20624;55.870;26.506;2024-03-02T11:04:50;8.80;;;4.35;;
34359;SDS011;20624;55.870;26.506;2024-03-02T11:07:21;10.32;;;5.50;;
34359;SDS011;20624;55.870;26.506;2024-03-02T11:09:53;8.45;;;5.20;;
34359;SDS011;20624;55.870;26.506;2024-03-02T11:12:28;12.32;;;5.22;;
34359;SDS011;20624;55.870;26.506;2024-03-02T11:14:58;12.93;;;6.00;;
34359;SDS011;20624;55.870;26.506;2024-03-02T11:17:26;10.90;;;5.32;;
34359;SDS011;20624;55.870;26.506;2024-03-02T11:19:54;9.43;;;4.82;;
34359;SDS011;20624;55.870;26.506;2024-03-02T11:22:22;10.63;;;6.07;;
34359;SDS011;20624;55.870;26.506;2024-03-02T11:24:50;10.43;;;5.68;;
34359;SDS011;20624;55.870;26.506;2024-03-02T11:33:02;7.53;;;3.35;;
34359;SDS011;20624;55.870;26.506;2024-03-02T11:35:41;8.13;;;4.57;;
34359;SDS011;20624;55.870;26.506;2024-03-02T11:38:13;10.95;;;6.88;;
34359;SDS011;20624;55.870;26.506;2024-03-02T11:40:41;10.48;;;5.93;;
34359;SDS011;20624;55.870;26.506;2024-03-02T11:43:09;10.35;;;6.18;;
34359;SDS011;20624;55.870;26.506;2024-03-02T11:45:37;11.68;;;4.90;;
34359;SDS011;20624;55.870;26.506;2024-03-02T11:48:11;10.23;;;5.97;;
34359;SDS011;20624;55.870;26.506;2024-03-02T11:50:42;10.98;;;5.10;;
34359;SDS011;20624;55.870;26.506;2024-03-02T11:53:16;10.55;;;6.07;;
34359;SDS011;20624;55.870;26.506;2024-03-02T11:55:44;9.38;;;4.50;;
34359;SDS011;20624;55.870;26.506;2024-03-02T11:58:15;13.02;;;5.72;;
34359;SDS011;20624;55.870;26.506;2024-03-02T12:00:51;7.82;;;4.40;;
34359;SDS011;20624;55.870;26.506;2024-03-02T12:03:20;11.95;;;6.05;;
34359;SDS011;20624;55.870;26.506;2024-03-02T12:05:49;8.13;;;3.92;;
34359;SDS011;20624;55.870;26.506;2024-03-02T12:08:17;8.15;;;3.72;;
34359;SDS011;20624;55.870;26.506;2024-03-02T12:10:58;6.38;;;2.75;;
34359;SDS011;20624;55.870;26.506;2024-03-02T12:13:28;9.30;;;4.68;;
34359;SDS011;20624;55.870;26.506;2024-03-02T12:15:56;9.18;;;4.20;;
34359;SDS011;20624;55.870;26.506;2024-03-02T12:18:25;8.32;;;4.57;;
34359;SDS011;20624;55.870;26.506;2024-03-02T12:20:53;7.82;;;3.22;;
34359;SDS011;20624;55.870;26.506;2024-03-02T12:23:24;14.23;;;5.13;;
34359;SDS011;20624;55.870;26.506;2024-03-02T12:25:52;5.53;;;3.08;;
34359;SDS011;20624;55.870;26.506;2024-03-02T12:28:23;7.63;;;3.35;;
34359;SDS011;20624;55.870;26.506;2024-03-02T12:30:51;5.07;;;2.67;;
34359;SDS011;20624;55.870;26.506;2024-03-02T12:33:19;8.32;;;4.05;;
34359;SDS011;20624;55.870;26.506;2024-03-02T12:35:48;10.73;;;4.78;;
34359;SDS011;20624;55.870;26.506;2024-03-02T12:38:16;4.15;;;1.90;;
34359;SDS011;20624;55.870;26.506;2024-03-02T12:40:44;3.97;;;2.08;;
34359;SDS011;20624;55.870;26.506;2024-03-02T12:43:15;7.47;;;3.72;;
34359;SDS011;20624;55.870;26.506;2024-03-02T12:45:43;6.57;;;3.42;;
34359;SDS011;20624;55.870;26.506;2024-03-02T12:48:10;6.53;;;3.47;;
34359;SDS011;20624;55.870;26.506;2024-03-02T12:50:40;4.45;;;2.60;;
34359;SDS011;20624;55.870;26.506;2024-03-02T12:53:14;11.40;;;4.63;;
34359;SDS011;20624;55.870;26.506;2024-03-02T12:55:43;9.68;;;3.60;;
34359;SDS011;20624;55.870;26.506;2024-03-02T12:58:18;7.88;;;2.60;;
34359;SDS011;20624;55.870;26.506;2024-03-02T13:00:50;11.32;;;4.68;;
34359;SDS011;20624;55.870;26.506;2024-03-02T13:03:34;12.63;;;6.93;;
34359;SDS011;20624;55.870;26.506;2024-03-02T13:06:02;12.07;;;4.90;;
34359;SDS011;20624;55.870;26.506;2024-03-02T13:08:30;9.07;;;4.68;;
34359;SDS011;20624;55.870;26.506;2024-03-02T13:10:58;10.70;;;5.10;;
34359;SDS011;20624;55.870;26.506;2024-03-02T13:13:30;15.20;;;6.53;;
34359;SDS011;20624;55.870;26.506;2024-03-02T13:15:58;13.25;;;6.45;;
34359;SDS011;20624;55.870;26.506;2024-03-02T13:18:28;13.05;;;6.18;;
34359;SDS011;20624;55.870;26.506;2024-03-02T13:20:58;12.23;;;5.65;;
34359;SDS011;20624;55.870;26.506;2024-03-02T13:23:26;12.05;;;6.47;;
34359;SDS011;20624;55.870;26.506;2024-03-02T13:25:55;14.70;;;6.97;;
34359;SDS011;20624;55.870;26.506;2024-03-02T13:28:25;11.55;;;7.13;;
34359;SDS011;20624;55.870;26.506;2024-03-02T13:30:52;9.73;;;5.25;;
34359;SDS011;20624;55.870;26.506;2024-03-02T13:33:20;10.27;;;6.35;;
34359;SDS011;20624;55.870;26.506;2024-03-02T13:35:51;10.25;;;6.15;;
34359;SDS011;20624;55.870;26.506;2024-03-02T13:38:19;14.10;;;7.10;;
34359;SDS011;20624;55.870;26.506;2024-03-02T13:40:48;10.88;;;6.45;;
34359;SDS011;20624;55.870;26.506;2024-03-02T13:43:19;14.27;;;6.60;;
34359;SDS011;20624;55.870;26.506;2024-03-02T13:45:46;14.13;;;7.55;;
34359;SDS011;20624;55.870;26.506;2024-03-02T13:48:17;12.43;;;6.57;;
34359;SDS011;20624;55.870;26.506;2024-03-02T13:50:46;14.75;;;6.05;;
34359;SDS011;20624;55.870;26.506;2024-03-02T13:53:16;17.08;;;6.57;;
34359;SDS011;20624;55.870;26.506;2024-03-02T13:55:44;13.10;;;6.28;;
34359;SDS011;20624;55.870;26.506;2024-03-02T13:58:14;15.30;;;8.02;;
34359;SDS011;20624;55.870;26.506;2024-03-02T14:00:42;16.05;;;8.02;;
34359;SDS011;20624;55.870;26.506;2024-03-02T14:03:13;16.42;;;8.23;;
34359;SDS011;20624;55.870;26.506;2024-03-02T14:05:42;13.98;;;5.70;;
34359;SDS011;20624;55.870;26.506;2024-03-02T14:08:12;13.15;;;6.75;;
34359;SDS011;20624;55.870;26.506;2024-03-02T14:10:40;10.63;;;6.63;;
34359;SDS011;20624;55.870;26.506;2024-03-02T14:13:09;14.75;;;7.25;;
34359;SDS011;20624;55.870;26.506;2024-03-02T14:15:37;15.43;;;7.45;;
34359;SDS011;20624;55.870;26.506;2024-03-02T14:18:07;15.80;;;6.57;;
34359;SDS011;20624;55.870;26.506;2024-03-02T14:20:37;14.65;;;7.55;;
34359;SDS011;20624;55.870;26.506;2024-03-02T14:23:07;12.50;;;6.78;;
34359;SDS011;20624;55.870;26.506;2024-03-02T14:25:36;12.60;;;6.20;;
34359;SDS011;20624;55.870;26.506;2024-03-02T14:28:04;10.80;;;6.25;;
34359;SDS011;20624;55.870;26.506;2024-03-02T14:30:51;15.35;;;6.95;;
34359;SDS011;20624;55.870;26.506;2024-03-02T14:33:20;3.65;;;1.30;;
34359;SDS011;20624;55.870;26.506;2024-03-02T14:35:48;3.42;;;1.60;;
34359;SDS011;20624;55.870;26.506;2024-03-02T14:38:15;3.60;;;1.55;;
34359;SDS011;20624;55.870;26.506;2024-03-02T14:40:43;3.10;;;1.50;;
34359;SDS011;20624;55.870;26.506;2024-03-02T14:43:11;7.75;;;3.10;;
34359;SDS011;20624;55.870;26.506;2024-03-02T14:45:39;4.55;;;2.03;;
34359;SDS011;20624;55.870;26.506;2024-03-02T14:48:07;6.63;;;2.10;;
34359;SDS011;20624;55.870;26.506;2024-03-02T14:50:35;5.30;;;1.65;;
34359;SDS011;20624;55.870;26.506;2024-03-02T14:53:03;9.60;;;3.75;;
34359;SDS011;20624;55.870;26.506;2024-03-02T14:58:01;11.68;;;5.28;;